createdAt,value
2022-10-12T00:01:22.569Z,4.53
2022-10-12T00:03:49.689Z,16.95
2022-10-12T00:06:20.553Z,7.70
2022-10-12T00:11:21.916Z,22.45
2022-10-12T00:13:48.910Z,16.25
2022-10-12T00:16:17.787Z,15.93
2022-10-12T00:18:44.735Z,7.38
2022-10-12T00:21:15.156Z,9.95
2022-10-12T00:23:43.343Z,9.93
2022-10-12T00:26:18.776Z,4.70
2022-10-12T00:28:46.081Z,14.00
2022-10-12T00:31:16.726Z,4.93
2022-10-12T00:33:44.103Z,10.93
2022-10-12T00:36:23.559Z,9.80
2022-10-12T00:38:52.510Z,12.93
2022-10-12T00:41:22.095Z,11.90
2022-10-12T00:43:52.848Z,11.57
2022-10-12T00:46:45.958Z,18.27
2022-10-12T00:49:18.330Z,7.35
2022-10-12T00:51:51.191Z,10.70
2022-10-12T00:54:22.311Z,15.57
2022-10-12T00:56:53.200Z,26.20
2022-10-12T01:01:49.470Z,9.95
2022-10-12T01:04:16.457Z,12.70
2022-10-12T01:06:43.475Z,10.57
2022-10-12T01:09:10.411Z,7.60
2022-10-12T01:11:37.317Z,16.52
2022-10-12T01:14:04.433Z,19.33
2022-10-12T01:16:46.340Z,13.63
2022-10-12T01:19:37.364Z,8.43
2022-10-12T01:22:12.007Z,8.52
2022-10-12T01:25:08.761Z,22.67
2022-10-12T01:28:00.665Z,7.57
2022-10-12T01:30:34.831Z,12.80
2022-10-12T01:33:20.360Z,13.55
2022-10-12T01:36:14.719Z,6.57
2022-10-12T01:38:53.826Z,9.68
2022-10-12T01:41:40.293Z,9.57
2022-10-12T01:44:07.295Z,10.70
2022-10-12T01:46:34.166Z,8.85
2022-10-12T01:49:02.398Z,7.47
2022-10-12T01:51:51.889Z,7.15
2022-10-12T01:54:42.026Z,16.38
2022-10-12T01:57:25.490Z,9.32
2022-10-12T01:59:58.528Z,8.43
2022-10-12T02:02:59.395Z,9.25
2022-10-12T02:05:43.784Z,9.90
2022-10-12T02:08:47.408Z,7.18
2022-10-12T02:11:23.098Z,10.02
2022-10-12T02:14:14.881Z,7.30
2022-10-12T02:16:47.598Z,7.72
2022-10-12T02:19:19.886Z,6.60
2022-10-12T02:21:48.014Z,14.52
2022-10-12T02:24:16.412Z,11.50
2022-10-12T02:26:48.068Z,4.28
2022-10-12T02:29:20.618Z,5.13
2022-10-12T02:31:47.484Z,9.60
2022-10-12T02:34:21.072Z,14.18
2022-10-12T02:36:57.327Z,13.50
2022-10-12T02:39:32.983Z,11.45
2022-10-12T02:42:08.925Z,11.73
2022-10-12T02:44:39.123Z,12.93
2022-10-12T02:47:08.587Z,8.20
2022-10-12T02:49:37.809Z,8.68
2022-10-12T02:52:06.569Z,4.47
2022-10-12T02:54:33.865Z,7.65
2022-10-12T02:57:00.987Z,12.27
2022-10-12T02:59:28.643Z,7.97
2022-10-12T03:01:55.614Z,15.70
2022-10-12T03:04:22.549Z,11.23
2022-10-12T03:06:49.517Z,20.75
2022-10-12T03:09:16.439Z,7.20
2022-10-12T03:11:44.848Z,10.05
2022-10-12T03:14:14.851Z,9.10
2022-10-12T03:16:41.837Z,7.93
2022-10-12T03:19:08.737Z,12.40
2022-10-12T03:21:35.835Z,7.13
2022-10-12T03:24:02.753Z,13.73
2022-10-12T03:26:29.679Z,4.20
2022-10-12T03:28:56.622Z,10.02
2022-10-12T03:31:23.586Z,12.88
2022-10-12T03:33:50.487Z,8.15
2022-10-12T03:36:17.715Z,10.00
2022-10-12T03:38:44.648Z,11.07
2022-10-12T03:41:11.598Z,11.75
2022-10-12T03:43:38.498Z,15.80
2022-10-12T03:46:05.587Z,13.95
2022-10-12T03:48:32.789Z,7.40
2022-10-12T03:50:59.810Z,9.27
2022-10-12T03:53:26.747Z,15.63
2022-10-12T03:55:53.736Z,11.88
2022-10-12T03:58:20.682Z,13.57
2022-10-12T04:00:47.636Z,14.40
2022-10-12T04:03:14.529Z,16.58
2022-10-12T04:05:41.492Z,16.50
2022-10-12T04:08:08.429Z,8.05
2022-10-12T04:10:35.370Z,3.85
2022-10-12T04:13:02.353Z,6.78
2022-10-12T04:15:29.258Z,12.02
2022-10-12T04:17:56.177Z,7.75
2022-10-12T04:20:23.081Z,13.88
2022-10-12T04:22:50.013Z,8.32
2022-10-12T04:25:16.999Z,12.52
2022-10-12T04:27:43.920Z,12.07
2022-10-12T04:30:11.558Z,7.47
2022-10-12T04:32:38.532Z,13.65
2022-10-12T04:35:05.706Z,11.43
2022-10-12T04:37:32.686Z,16.08
2022-10-12T04:39:59.618Z,7.78
2022-10-12T04:42:27.024Z,8.32
2022-10-12T04:44:53.978Z,12.57
2022-10-12T04:47:21.235Z,7.78
2022-10-12T04:49:48.141Z,16.45
2022-10-12T04:52:15.115Z,9.07
2022-10-12T04:54:42.123Z,16.90
2022-10-12T04:57:09.110Z,9.88
2022-10-12T04:59:36.087Z,11.25
2022-10-12T05:02:03.019Z,13.15
2022-10-12T05:04:29.986Z,8.20
2022-10-12T05:06:56.995Z,12.95
2022-10-12T05:09:24.019Z,9.45
2022-10-12T05:11:51.025Z,7.50
2022-10-12T05:14:17.974Z,10.82
2022-10-12T05:16:44.882Z,11.07
2022-10-12T05:19:11.870Z,15.52
2022-10-12T05:21:40.413Z,19.00
2022-10-12T05:24:08.230Z,13.93
2022-10-12T05:26:35.137Z,8.75
2022-10-12T05:29:02.146Z,13.63
2022-10-12T05:31:29.125Z,12.65
2022-10-12T05:33:56.070Z,8.90
2022-10-12T06:36:26.364Z,19.83
2022-10-12T06:38:53.569Z,15.27
2022-10-12T06:41:20.520Z,13.80
2022-10-12T06:43:47.466Z,10.75
2022-10-12T06:46:14.495Z,10.48
2022-10-12T06:48:41.436Z,11.43
2022-10-12T06:51:08.453Z,8.80
2022-10-12T06:53:35.701Z,10.23
2022-10-12T06:56:09.789Z,7.65
2022-10-12T06:58:37.100Z,8.15
2022-10-12T07:01:10.801Z,8.90
2022-10-12T07:03:37.877Z,9.13
2022-10-12T07:06:12.309Z,10.20
2022-10-12T07:08:41.221Z,7.63
2022-10-12T07:11:11.565Z,9.13
2022-10-12T07:13:38.872Z,6.90
2022-10-12T07:16:06.040Z,7.80
2022-10-12T07:18:33.570Z,10.25
2022-10-12T07:21:02.452Z,6.88
2022-10-12T07:23:34.270Z,5.38
2022-10-12T07:26:01.271Z,8.88
2022-10-12T07:28:28.684Z,6.30
2022-10-12T07:31:00.713Z,8.32
2022-10-12T07:33:27.748Z,8.05
2022-10-12T07:36:14.874Z,5.40
2022-10-12T07:38:46.002Z,9.88
2022-10-12T07:41:13.691Z,14.32
2022-10-12T07:43:40.702Z,8.63
2022-10-12T07:46:08.491Z,6.50
2022-10-12T07:48:36.153Z,6.15
2022-10-12T07:51:08.875Z,3.80
2022-10-12T07:53:37.659Z,4.90
2022-10-12T07:56:06.816Z,10.13
2022-10-12T07:58:34.024Z,5.97
2022-10-12T08:01:08.373Z,3.85
2022-10-12T08:03:35.801Z,6.82
2022-10-12T08:06:14.271Z,3.30
2022-10-12T08:08:41.627Z,5.88
2022-10-12T08:11:09.396Z,6.88
2022-10-12T08:13:36.826Z,7.18
2022-10-12T08:16:05.364Z,7.65
2022-10-12T08:18:32.620Z,5.20
2022-10-12T08:20:59.549Z,4.28
2022-10-12T08:23:26.489Z,9.95
2022-10-12T08:25:57.399Z,7.25
2022-10-12T08:28:25.617Z,6.85
2022-10-12T08:30:52.619Z,3.80
2022-10-12T08:33:19.763Z,6.45
2022-10-12T08:35:50.398Z,5.13
2022-10-12T08:38:17.298Z,6.50
2022-10-12T08:40:53.829Z,4.97
2022-10-12T08:43:46.229Z,5.78
2022-10-12T08:46:13.204Z,11.32
2022-10-12T08:49:07.163Z,4.63
2022-10-12T08:51:52.136Z,4.10
2022-10-12T08:54:31.052Z,6.50
2022-10-12T08:56:58.348Z,4.90
2022-10-12T08:59:26.332Z,2.38
2022-10-12T09:01:59.904Z,5.90
2022-10-12T09:04:40.530Z,4.85
2022-10-12T09:07:19.184Z,5.20
2022-10-12T09:09:49.101Z,3.97
2022-10-12T09:12:18.780Z,4.85
2022-10-12T09:14:51.369Z,1.85
2022-10-12T09:17:47.628Z,2.40
2022-10-12T09:20:31.975Z,2.97
2022-10-12T09:23:12.403Z,1.98
2022-10-12T09:25:40.956Z,8.10
2022-10-12T09:28:15.996Z,6.05
2022-10-12T09:30:59.435Z,4.72
2022-10-12T09:33:38.088Z,6.07
2022-10-12T09:36:05.710Z,4.10
2022-10-12T09:38:32.648Z,6.18
2022-10-12T09:40:59.646Z,6.55
2022-10-12T09:43:26.628Z,2.88
2022-10-12T09:45:53.851Z,4.53
2022-10-12T09:48:24.300Z,2.30
2022-10-12T09:51:02.033Z,3.08
2022-10-12T09:53:37.785Z,5.10
2022-10-12T09:56:06.774Z,2.65
2022-10-12T09:58:55.961Z,3.55
2022-10-12T10:01:38.475Z,2.55
2022-10-12T10:04:26.781Z,2.00
2022-10-12T10:06:53.949Z,2.00
2022-10-12T10:09:34.156Z,2.58
2022-10-12T10:12:26.117Z,2.07
2022-10-12T10:14:56.864Z,2.58
2022-10-12T10:17:29.813Z,2.53
2022-10-12T10:19:58.300Z,1.08
2022-10-12T10:22:25.922Z,2.45
2022-10-12T10:24:59.153Z,1.13
2022-10-12T10:27:37.935Z,3.13
2022-10-12T10:30:29.570Z,2.67
2022-10-12T10:33:29.218Z,2.53
2022-10-12T10:36:12.787Z,6.55
2022-10-12T10:38:55.117Z,4.68
2022-10-12T10:41:32.513Z,1.63
2022-10-12T10:43:59.655Z,4.68
2022-10-12T10:46:31.480Z,2.45
2022-10-12T10:49:06.487Z,2.50
2022-10-12T10:52:00.403Z,0.75
2022-10-12T10:54:33.229Z,2.03
2022-10-12T10:57:02.452Z,2.97
2022-10-12T10:59:42.269Z,0.85
2022-10-12T11:02:31.448Z,1.48
2022-10-12T11:05:13.295Z,6.32
2022-10-12T11:07:48.446Z,3.22
2022-10-12T11:10:41.936Z,3.38
2022-10-12T11:13:20.629Z,1.65
2022-10-12T11:15:58.410Z,4.78
2022-10-12T11:18:53.457Z,3.67
2022-10-12T11:21:40.760Z,2.28
2022-10-12T11:24:19.840Z,3.97
2022-10-12T11:27:28.521Z,2.22
2022-10-12T11:30:08.919Z,2.28
2022-10-12T11:35:26.930Z,2.88
2022-10-12T11:38:05.335Z,2.95
2022-10-12T11:43:38.545Z,4.20
2022-10-12T11:46:10.453Z,2.88
2022-10-12T11:48:46.674Z,2.03
2022-10-12T11:51:13.602Z,4.30
2022-10-12T11:53:46.671Z,2.28
2022-10-12T11:56:26.569Z,3.33
2022-10-12T11:59:02.126Z,6.32
2022-10-12T12:01:43.568Z,3.30
2022-10-12T12:04:44.350Z,6.75
2022-10-12T12:09:50.144Z,4.53
2022-10-12T12:12:21.206Z,2.70
2022-10-12T12:14:48.133Z,4.88
2022-10-12T12:17:15.520Z,2.95
2022-10-12T12:19:44.342Z,2.55
2022-10-12T12:22:18.988Z,3.35
2022-10-12T12:24:55.750Z,3.28
2022-10-12T12:27:30.097Z,4.15
2022-10-12T12:29:58.041Z,7.05
2022-10-12T12:32:27.190Z,2.83
2022-10-12T12:35:00.509Z,2.92
2022-10-12T12:37:33.812Z,2.92
2022-10-12T12:40:00.863Z,3.17
2022-10-12T12:42:32.351Z,2.75
2022-10-12T12:45:48.326Z,2.15
2022-10-12T12:48:39.698Z,4.07
2022-10-12T12:51:09.658Z,1.85
2022-10-12T12:53:59.147Z,1.38
2022-10-12T12:56:50.606Z,1.25
2022-10-12T12:59:58.388Z,3.13
2022-10-12T13:02:52.480Z,9.25
2022-10-12T13:05:54.405Z,1.88
2022-10-12T13:08:36.109Z,13.70
2022-10-12T13:11:05.889Z,1.40
2022-10-12T13:13:50.089Z,2.33
2022-10-12T13:17:09.907Z,3.22
2022-10-12T13:19:21.241Z,5.05
2022-10-12T13:21:51.637Z,1.83
2022-10-12T13:24:38.919Z,3.53
2022-10-12T13:27:24.059Z,1.77
2022-10-12T13:30:07.340Z,1.80
2022-10-12T13:32:56.149Z,2.28
2022-10-12T13:35:42.856Z,2.17
2022-10-12T13:38:15.519Z,1.48
2022-10-12T13:40:52.535Z,1.23
2022-10-12T13:43:31.160Z,2.70
2022-10-12T13:45:58.231Z,0.82
2022-10-12T13:48:53.768Z,2.80
2022-10-12T13:51:25.660Z,2.08
2022-10-12T13:53:52.844Z,1.05
2022-10-12T13:56:29.162Z,2.92
2022-10-12T13:59:06.710Z,3.50
2022-10-12T14:01:51.244Z,2.47
2022-10-12T14:04:18.220Z,2.63
2022-10-12T14:06:53.047Z,1.15
2022-10-12T14:09:22.555Z,2.05
2022-10-12T14:11:50.422Z,1.70
2022-10-12T14:14:34.703Z,1.95
2022-10-12T14:17:02.091Z,1.80
2022-10-12T14:19:36.524Z,1.17
2022-10-12T14:22:03.979Z,1.65
2022-10-12T14:24:32.074Z,0.77
2022-10-12T14:27:20.468Z,0.90
2022-10-12T14:29:48.079Z,2.13
2022-10-12T14:32:14.940Z,2.22
2022-10-12T14:34:48.250Z,16.25
2022-10-12T14:37:15.112Z,4.20
2022-10-12T14:39:47.013Z,2.58
2022-10-12T14:42:33.826Z,3.75
2022-10-12T14:45:02.171Z,4.38
2022-10-12T14:47:39.174Z,1.70
2022-10-12T14:50:09.026Z,1.20
2022-10-12T14:52:44.577Z,2.05
2022-10-12T14:55:32.441Z,3.42
2022-10-12T14:58:01.986Z,5.72
2022-10-12T15:00:31.920Z,2.88
2022-10-12T15:02:59.856Z,6.43
2022-10-12T15:05:31.868Z,1.92
2022-10-12T15:07:59.645Z,2.55
2022-10-12T15:10:28.372Z,3.40
2022-10-12T15:26:47.575Z,10.50
2022-10-12T15:29:32.228Z,6.30
2022-10-12T15:31:59.714Z,6.93
2022-10-12T15:34:40.617Z,13.88
2022-10-12T15:37:09.285Z,16.23
2022-10-12T15:39:36.692Z,49.75
2022-10-12T15:42:04.593Z,68.93
2022-10-12T15:44:31.674Z,88.78
2022-10-12T15:47:00.815Z,62.17
2022-10-12T15:49:27.720Z,78.40
2022-10-12T15:51:55.670Z,68.75
2022-10-12T15:54:22.647Z,52.95
2022-10-12T15:56:49.610Z,30.52
2022-10-12T15:59:16.573Z,33.00
2022-10-12T16:01:43.993Z,49.95
2022-10-12T16:04:15.310Z,31.35
2022-10-12T16:06:42.298Z,17.38
2022-10-12T16:09:09.364Z,50.83
2022-10-12T16:11:36.430Z,37.70
2022-10-12T16:14:03.406Z,24.75
2022-10-12T16:16:32.090Z,20.75
2022-10-12T16:18:59.209Z,31.92
2022-10-12T16:21:26.200Z,45.42
2022-10-12T16:23:53.238Z,43.92
2022-10-12T16:26:20.233Z,55.90
2022-10-12T16:28:47.222Z,45.08
2022-10-12T16:31:17.592Z,49.72
2022-10-12T16:33:45.048Z,48.45
2022-10-12T16:36:15.179Z,47.70
2022-10-12T16:38:43.045Z,38.63
2022-10-12T16:41:19.531Z,37.13
2022-10-12T16:43:46.539Z,26.70
2022-10-12T16:46:13.456Z,34.40
2022-10-12T16:48:49.926Z,30.33
2022-10-12T16:51:16.910Z,37.05
2022-10-12T16:53:44.000Z,61.47
2022-10-12T16:56:11.014Z,158.20
2022-10-12T16:58:37.996Z,95.65
2022-10-12T17:01:10.031Z,100.00
2022-10-12T17:03:37.144Z,73.82
2022-10-12T17:06:04.539Z,70.30
2022-10-12T17:08:36.240Z,63.30
2022-10-12T17:11:07.943Z,65.75
2022-10-12T17:13:36.895Z,66.25
2022-10-12T17:16:24.853Z,58.83
2022-10-12T17:18:56.809Z,66.63
2022-10-12T17:21:26.591Z,66.28
2022-10-12T17:23:57.153Z,71.72
2022-10-12T17:26:24.144Z,64.72
2022-10-12T17:28:51.206Z,74.72
2022-10-12T17:31:18.409Z,67.25
2022-10-12T17:33:45.406Z,70.30
2022-10-12T17:36:14.186Z,96.38
2022-10-12T17:38:41.151Z,97.68
2022-10-12T17:41:08.098Z,84.82
2022-10-12T17:43:35.427Z,88.82
2022-10-12T17:46:05.245Z,84.95
2022-10-12T17:48:32.797Z,74.63
2022-10-12T17:51:09.815Z,74.70
2022-10-12T17:53:37.221Z,64.95
2022-10-12T17:56:06.162Z,70.82
2022-10-12T17:58:34.395Z,67.13
2022-10-12T18:01:06.551Z,65.93
2022-10-12T18:03:33.765Z,52.72
2022-10-12T18:06:12.985Z,65.25
2022-10-12T18:08:39.918Z,58.63
2022-10-12T18:11:07.868Z,62.80
2022-10-12T18:13:36.335Z,56.80
2022-10-12T18:16:11.121Z,77.35
2022-10-12T18:18:38.937Z,93.18
2022-10-12T18:21:10.520Z,82.35
2022-10-12T18:23:37.493Z,82.45
2022-10-12T18:26:09.174Z,83.03
2022-10-12T18:28:36.479Z,91.68
2022-10-12T18:31:04.249Z,83.85
2022-10-12T18:33:31.684Z,77.68
2022-10-12T18:36:06.602Z,65.30
2022-10-12T18:38:34.428Z,62.58
2022-10-12T18:41:06.271Z,61.55
2022-10-12T18:43:33.831Z,60.17
2022-10-12T18:46:04.182Z,52.30
2022-10-12T18:48:31.105Z,47.35
2022-10-12T18:51:23.251Z,57.42
2022-10-12T18:53:50.310Z,42.95
2022-10-12T18:56:18.091Z,51.75
2022-10-12T18:58:45.349Z,57.65
2022-10-12T19:01:15.577Z,52.08
2022-10-12T19:03:42.918Z,57.28
2022-10-12T19:06:15.595Z,56.42
2022-10-12T19:08:46.044Z,51.05
2022-10-12T19:11:13.926Z,61.28
2022-10-12T19:13:41.564Z,54.30
2022-10-12T19:16:13.882Z,42.10
2022-10-12T19:18:45.007Z,43.72
2022-10-12T19:21:17.474Z,50.08
2022-10-12T19:23:45.543Z,47.05
2022-10-12T19:26:17.793Z,44.83
2022-10-12T19:28:45.592Z,46.35
2022-10-12T19:31:21.909Z,36.20
2022-10-12T19:33:49.361Z,28.75
2022-10-12T19:36:18.809Z,31.02
2022-10-12T19:38:48.861Z,37.30
2022-10-12T19:41:16.662Z,51.40
2022-10-12T19:43:43.572Z,38.67
2022-10-12T19:46:12.650Z,42.95
2022-10-12T19:48:42.102Z,33.05
2022-10-12T19:51:12.425Z,34.85
2022-10-12T19:53:40.735Z,37.13
2022-10-12T19:56:10.756Z,39.67
2022-10-12T19:58:37.778Z,39.23
2022-10-12T20:01:07.817Z,35.50
2022-10-12T20:03:35.689Z,41.35
2022-10-12T20:06:06.172Z,47.92
2022-10-12T20:08:33.514Z,39.50
2022-10-12T20:11:00.626Z,35.75
2022-10-12T20:13:27.579Z,33.80
2022-10-12T20:15:55.458Z,31.70
2022-10-12T20:18:23.388Z,29.23
2022-10-12T20:20:50.869Z,27.15
2022-10-12T20:23:18.409Z,28.10
2022-10-12T20:25:47.740Z,32.55
2022-10-12T20:28:15.322Z,36.67
2022-10-12T20:30:42.710Z,38.63
2022-10-12T20:33:10.380Z,40.78
2022-10-12T20:35:37.375Z,41.90
2022-10-12T20:38:04.532Z,49.95
2022-10-12T20:40:31.495Z,45.08
2022-10-12T20:42:58.416Z,46.78
2022-10-12T20:45:25.958Z,61.88
2022-10-12T20:47:52.910Z,68.00
2022-10-12T20:50:20.064Z,77.60
2022-10-12T20:52:47.983Z,76.18
2022-10-12T20:55:14.901Z,82.65
2022-10-12T20:57:41.814Z,110.70
2022-10-12T21:00:09.071Z,127.82
2022-10-12T21:02:38.365Z,119.35
2022-10-12T21:05:06.923Z,109.25
2022-10-12T21:07:34.804Z,113.38
2022-10-12T21:10:01.878Z,91.80
2022-10-12T21:12:28.866Z,87.72
2022-10-12T21:14:55.802Z,64.00
2022-10-12T21:17:22.725Z,67.57
2022-10-12T21:19:51.674Z,70.50
2022-10-12T21:26:14.101Z,87.63
2022-10-12T21:28:41.604Z,93.05
2022-10-12T21:31:09.147Z,63.17
2022-10-12T21:33:37.165Z,65.72
2022-10-12T21:36:20.050Z,51.83
2022-10-12T21:38:47.420Z,49.25
2022-10-12T21:41:16.026Z,61.97
2022-10-12T21:43:43.386Z,59.00
2022-10-12T21:46:12.971Z,55.65
2022-10-12T21:48:40.126Z,46.85
2022-10-12T21:51:09.011Z,46.40
2022-10-12T21:53:37.088Z,51.92
2022-10-12T21:56:20.902Z,60.92
2022-10-12T21:58:48.720Z,49.13
2022-10-12T22:01:18.142Z,54.03
2022-10-12T22:03:45.536Z,46.35
2022-10-12T22:06:18.907Z,43.67
2022-10-12T22:08:50.917Z,41.25
2022-10-12T22:11:18.261Z,31.70
2022-10-12T22:13:45.172Z,31.13
2022-10-12T22:16:15.157Z,31.27
2022-10-12T22:18:42.820Z,25.83
2022-10-12T22:21:15.437Z,34.10
2022-10-12T22:23:43.414Z,51.08
2022-10-12T22:26:19.337Z,52.70
2022-10-12T22:28:46.407Z,51.03
2022-10-12T22:31:15.820Z,32.65
2022-10-12T22:33:42.825Z,26.02
2022-10-12T22:36:11.847Z,33.35
2022-10-12T22:38:38.769Z,34.92
2022-10-12T22:41:07.877Z,30.27
2022-10-12T22:43:35.343Z,34.22
2022-10-12T22:46:03.137Z,36.00
2022-10-12T22:48:30.517Z,35.00
2022-10-12T22:50:57.475Z,34.17
2022-10-12T22:53:25.989Z,28.67
2022-10-12T22:56:11.620Z,39.03
2022-10-12T22:58:38.529Z,53.70
2022-10-12T23:01:11.323Z,56.85
2022-10-12T23:03:39.195Z,62.22
2022-10-12T23:06:07.907Z,53.92
2022-10-12T23:08:35.251Z,60.72
2022-10-12T23:11:22.807Z,51.78
2022-10-12T23:13:49.942Z,45.53
2022-10-12T23:16:23.639Z,47.33
2022-10-12T23:18:59.008Z,45.70
2022-10-12T23:21:27.265Z,45.03
2022-10-12T23:23:54.138Z,38.88
2022-10-12T23:26:23.224Z,52.58
2022-10-12T23:28:50.550Z,42.28
2022-10-12T23:31:20.382Z,39.13
2022-10-12T23:33:47.498Z,29.42
2022-10-12T23:36:16.640Z,36.75
2022-10-12T23:38:44.681Z,30.70
2022-10-12T23:41:12.967Z,38.47
2022-10-12T23:43:40.425Z,40.08
2022-10-12T23:46:07.999Z,40.47
2022-10-12T23:48:35.171Z,34.65
2022-10-12T23:51:02.092Z,29.83
2022-10-12T23:53:29.363Z,29.92
2022-10-12T23:55:56.513Z,31.25
2022-10-12T23:58:23.611Z,34.50
